sensor_id;sensor_type;location;lat;lon;timestamp;temperature;humidity
27797;DHT22;15177;50.844;4.412;2022-09-09T00:04:19;16.10;99.90
27797;DHT22;15177;50.844;4.412;2022-09-09T00:09:29;16.40;99.90
27797;DHT22;15177;50.844;4.412;2022-09-09T00:12:04;16.40;99.90
27797;DHT22;15177;50.844;4.412;2022-09-09T00:14:37;16.40;99.90
27797;DHT22;15177;50.844;4.412;2022-09-09T00:17:09;16.50;99.90
27797;DHT22;15177;50.844;4.412;2022-09-09T00:19:45;16.50;99.90
27797;DHT22;15177;50.844;4.412;2022-09-09T00:24:59;16.50;99.90
27797;DHT22;15177;50.844;4.412;2022-09-09T00:27:45;16.60;99.90
27797;DHT22;15177;50.844;4.412;2022-09-09T00:32:37;16.60;99.90
27797;DHT22;15177;50.844;4.412;2022-09-09T00:37:41;16.70;99.90
27797;DHT22;15177;50.844;4.412;2022-09-09T00:45:52;17.00;99.90
27797;DHT22;15177;50.844;4.412;2022-09-09T00:48:22;17.10;99.90
27797;DHT22;15177;50.844;4.412;2022-09-09T00:50:57;17.10;99.90
27797;DHT22;15177;50.844;4.412;2022-09-09T00:56:20;17.00;99.90
27797;DHT22;15177;50.844;4.412;2022-09-09T00:59:00;16.90;99.90
27797;DHT22;15177;50.844;4.412;2022-09-09T01:01:31;16.90;99.90
27797;DHT22;15177;50.844;4.412;2022-09-09T01:03:57;17.00;99.90
27797;DHT22;15177;50.844;4.412;2022-09-09T01:06:34;17.00;99.90
27797;DHT22;15177;50.844;4.412;2022-09-09T01:09:16;16.80;99.90
27797;DHT22;15177;50.844;4.412;2022-09-09T01:28:09;16.50;99.90
27797;DHT22;15177;50.844;4.412;2022-09-09T01:30:38;16.70;99.90
27797;DHT22;15177;50.844;4.412;2022-09-09T01:33:04;17.00;99.90
27797;DHT22;15177;50.844;4.412;2022-09-09T01:38:19;16.50;99.90
27797;DHT22;15177;50.844;4.412;2022-09-09T01:40:45;16.60;99.90
27797;DHT22;15177;50.844;4.412;2022-09-09T01:43:11;16.70;99.90
27797;DHT22;15177;50.844;4.412;2022-09-09T01:45:39;16.80;99.90
27797;DHT22;15177;50.844;4.412;2022-09-09T01:48:06;16.90;99.90
27797;DHT22;15177;50.844;4.412;2022-09-09T01:50:31;16.70;99.90
27797;DHT22;15177;50.844;4.412;2022-09-09T01:52:59;16.70;99.90
27797;DHT22;15177;50.844;4.412;2022-09-09T01:55:32;16.50;99.90
27797;DHT22;15177;50.844;4.412;2022-09-09T02:00:37;16.80;99.90
27797;DHT22;15177;50.844;4.412;2022-09-09T02:03:23;16.80;99.90
27797;DHT22;15177;50.844;4.412;2022-09-09T02:08:42;16.70;99.90
27797;DHT22;15177;50.844;4.412;2022-09-09T02:11:22;16.80;99.90
27797;DHT22;15177;50.844;4.412;2022-09-09T02:13:52;16.70;99.90
27797;DHT22;15177;50.844;4.412;2022-09-09T02:21:29;16.80;99.90
27797;DHT22;15177;50.844;4.412;2022-09-09T02:23:58;16.70;99.90
27797;DHT22;15177;50.844;4.412;2022-09-09T02:26:25;16.80;99.90
27797;DHT22;15177;50.844;4.412;2022-09-09T02:28:54;16.90;99.90
27797;DHT22;15177;50.844;4.412;2022-09-09T02:31:22;16.70;99.90
27797;DHT22;15177;50.844;4.412;2022-09-09T02:33:55;16.80;99.90
27797;DHT22;15177;50.844;4.412;2022-09-09T02:36:24;16.60;99.90
27797;DHT22;15177;50.844;4.412;2022-09-09T02:38:51;16.70;99.90
27797;DHT22;15177;50.844;4.412;2022-09-09T02:41:28;16.80;99.90
27797;DHT22;15177;50.844;4.412;2022-09-09T02:43:54;16.80;99.90
27797;DHT22;15177;50.844;4.412;2022-09-09T02:51:32;16.90;99.90
27797;DHT22;15177;50.844;4.412;2022-09-09T02:54:16;16.80;99.90
27797;DHT22;15177;50.844;4.412;2022-09-09T02:56:52;16.80;99.90
27797;DHT22;15177;50.844;4.412;2022-09-09T02:59:20;16.90;99.90
27797;DHT22;15177;50.844;4.412;2022-09-09T03:01:46;16.70;99.90
27797;DHT22;15177;50.844;4.412;2022-09-09T03:04:12;16.80;99.90
27797;DHT22;15177;50.844;4.412;2022-09-09T03:06:38;16.80;99.90
27797;DHT22;15177;50.844;4.412;2022-09-09T03:09:04;16.80;99.90
27797;DHT22;15177;50.844;4.412;2022-09-09T03:11:29;16.90;99.90
27797;DHT22;15177;50.844;4.412;2022-09-09T03:13:55;16.80;99.90
27797;DHT22;15177;50.844;4.412;2022-09-09T03:16:23;16.80;99.90
27797;DHT22;15177;50.844;4.412;2022-09-09T03:18:49;16.80;99.90
27797;DHT22;15177;50.844;4.412;2022-09-09T03:21:15;16.80;99.90
27797;DHT22;15177;50.844;4.412;2022-09-09T03:23:41;16.80;99.90
27797;DHT22;15177;50.844;4.412;2022-09-09T03:26:09;16.80;99.90
27797;DHT22;15177;50.844;4.412;2022-09-09T03:28:35;16.90;99.90
27797;DHT22;15177;50.844;4.412;2022-09-09T03:31:02;16.80;99.90
27797;DHT22;15177;50.844;4.412;2022-09-09T03:33:27;16.80;99.90
27797;DHT22;15177;50.844;4.412;2022-09-09T03:35:55;16.70;99.90
27797;DHT22;15177;50.844;4.412;2022-09-09T03:38:25;16.50;99.90
27797;DHT22;15177;50.844;4.412;2022-09-09T03:40:52;16.50;99.90
27797;DHT22;15177;50.844;4.412;2022-09-09T03:43:23;16.50;99.90
27797;DHT22;15177;50.844;4.412;2022-09-09T03:45:49;16.50;99.90
27797;DHT22;15177;50.844;4.412;2022-09-09T03:48:16;16.50;99.90
27797;DHT22;15177;50.844;4.412;2022-09-09T03:53:11;16.60;99.90
27797;DHT22;15177;50.844;4.412;2022-09-09T03:55:37;16.70;99.90
27797;DHT22;15177;50.844;4.412;2022-09-09T03:58:02;16.70;99.90
27797;DHT22;15177;50.844;4.412;2022-09-09T04:00:28;16.70;99.90
27797;DHT22;15177;50.844;4.412;2022-09-09T04:02:55;16.60;99.90
27797;DHT22;15177;50.844;4.412;2022-09-09T04:05:23;16.50;99.90
27797;DHT22;15177;50.844;4.412;2022-09-09T04:07:48;16.50;99.90
27797;DHT22;15177;50.844;4.412;2022-09-09T04:10:14;16.60;99.90
27797;DHT22;15177;50.844;4.412;2022-09-09T04:12:41;16.60;99.90
27797;DHT22;15177;50.844;4.412;2022-09-09T04:15:07;16.70;99.90
27797;DHT22;15177;50.844;4.412;2022-09-09T04:17:32;16.80;99.90
27797;DHT22;15177;50.844;4.412;2022-09-09T04:19:58;16.80;99.90
27797;DHT22;15177;50.844;4.412;2022-09-09T04:22:24;16.70;99.90
27797;DHT22;15177;50.844;4.412;2022-09-09T04:24:49;16.70;99.90
27797;DHT22;15177;50.844;4.412;2022-09-09T04:27:15;16.70;99.90
27797;DHT22;15177;50.844;4.412;2022-09-09T04:29:41;16.70;99.90
27797;DHT22;15177;50.844;4.412;2022-09-09T04:32:06;16.60;99.90
27797;DHT22;15177;50.844;4.412;2022-09-09T04:34:32;16.60;99.90
27797;DHT22;15177;50.844;4.412;2022-09-09T04:36:58;16.70;99.90
27797;DHT22;15177;50.844;4.412;2022-09-09T04:39:25;16.70;99.90
27797;DHT22;15177;50.844;4.412;2022-09-09T04:41:51;16.50;99.90
27797;DHT22;15177;50.844;4.412;2022-09-09T04:44:17;16.60;99.90
27797;DHT22;15177;50.844;4.412;2022-09-09T04:46:42;16.60;99.90
27797;DHT22;15177;50.844;4.412;2022-09-09T04:49:08;16.60;99.90
27797;DHT22;15177;50.844;4.412;2022-09-09T04:51:34;16.40;99.90
27797;DHT22;15177;50.844;4.412;2022-09-09T04:53:59;16.50;99.90
27797;DHT22;15177;50.844;4.412;2022-09-09T04:56:25;16.50;99.90
27797;DHT22;15177;50.844;4.412;2022-09-09T04:58:53;16.50;99.90
27797;DHT22;15177;50.844;4.412;2022-09-09T05:01:21;16.30;99.90
27797;DHT22;15177;50.844;4.412;2022-09-09T05:03:47;16.30;99.90
27797;DHT22;15177;50.844;4.412;2022-09-09T05:06:18;16.30;99.90
27797;DHT22;15177;50.844;4.412;2022-09-09T05:08:45;16.30;99.90
27797;DHT22;15177;50.844;4.412;2022-09-09T05:13:41;16.50;99.90
27797;DHT22;15177;50.844;4.412;2022-09-09T05:16:07;16.40;99.90
27797;DHT22;15177;50.844;4.412;2022-09-09T05:18:38;16.50;99.90
27797;DHT22;15177;50.844;4.412;2022-09-09T05:21:05;16.50;99.90
27797;DHT22;15177;50.844;4.412;2022-09-09T05:23:32;16.40;99.90
27797;DHT22;15177;50.844;4.412;2022-09-09T05:25:59;16.40;99.90
27797;DHT22;15177;50.844;4.412;2022-09-09T05:28:26;16.40;99.90
27797;DHT22;15177;50.844;4.412;2022-09-09T05:31:03;16.30;99.90
27797;DHT22;15177;50.844;4.412;2022-09-09T05:33:31;16.50;99.90
27797;DHT22;15177;50.844;4.412;2022-09-09T05:36:05;16.80;99.90
27797;DHT22;15177;50.844;4.412;2022-09-09T05:38:32;16.90;99.90
27797;DHT22;15177;50.844;4.412;2022-09-09T05:40:59;17.10;99.90
27797;DHT22;15177;50.844;4.412;2022-09-09T05:43:26;17.20;99.90
27797;DHT22;15177;50.844;4.412;2022-09-09T05:46:04;17.50;99.90
27797;DHT22;15177;50.844;4.412;2022-09-09T05:48:31;17.50;99.90
27797;DHT22;15177;50.844;4.412;2022-09-09T05:50:58;17.50;99.90
27797;DHT22;15177;50.844;4.412;2022-09-09T05:53:25;17.50;99.90
27797;DHT22;15177;50.844;4.412;2022-09-09T05:55:57;17.60;99.90
27797;DHT22;15177;50.844;4.412;2022-09-09T05:58:23;17.80;99.90
27797;DHT22;15177;50.844;4.412;2022-09-09T06:00:49;17.80;99.90
27797;DHT22;15177;50.844;4.412;2022-09-09T06:03:15;17.90;99.90
27797;DHT22;15177;50.844;4.412;2022-09-09T06:05:42;17.90;99.90
27797;DHT22;15177;50.844;4.412;2022-09-09T06:08:10;18.20;99.90
27797;DHT22;15177;50.844;4.412;2022-09-09T06:10:36;18.30;99.90
27797;DHT22;15177;50.844;4.412;2022-09-09T06:13:02;18.60;99.90
27797;DHT22;15177;50.844;4.412;2022-09-09T06:15:27;18.70;99.90
27797;DHT22;15177;50.844;4.412;2022-09-09T06:17:55;18.90;99.90
27797;DHT22;15177;50.844;4.412;2022-09-09T06:20:21;18.90;99.90
27797;DHT22;15177;50.844;4.412;2022-09-09T06:22:47;19.20;99.90
27797;DHT22;15177;50.844;4.412;2022-09-09T06:25:14;19.90;99.90
27797;DHT22;15177;50.844;4.412;2022-09-09T06:27:39;20.50;99.90
27797;DHT22;15177;50.844;4.412;2022-09-09T06:30:06;20.70;99.90
27797;DHT22;15177;50.844;4.412;2022-09-09T06:32:34;20.70;99.90
27797;DHT22;15177;50.844;4.412;2022-09-09T06:35:03;20.70;99.90
27797;DHT22;15177;50.844;4.412;2022-09-09T06:37:28;20.70;99.90
27797;DHT22;15177;50.844;4.412;2022-09-09T06:39:54;20.80;99.90
27797;DHT22;15177;50.844;4.412;2022-09-09T06:42:20;20.80;99.90
27797;DHT22;15177;50.844;4.412;2022-09-09T06:44:46;20.60;99.90
27797;DHT22;15177;50.844;4.412;2022-09-09T06:47:11;20.30;99.90
27797;DHT22;15177;50.844;4.412;2022-09-09T06:49:37;20.10;99.90
27797;DHT22;15177;50.844;4.412;2022-09-09T06:52:04;19.90;99.90
27797;DHT22;15177;50.844;4.412;2022-09-09T06:54:30;19.80;99.90
27797;DHT22;15177;50.844;4.412;2022-09-09T06:56:55;19.60;99.90
27797;DHT22;15177;50.844;4.412;2022-09-09T06:59:21;19.40;99.90
27797;DHT22;15177;50.844;4.412;2022-09-09T07:01:46;19.40;99.90
27797;DHT22;15177;50.844;4.412;2022-09-09T07:04:12;19.40;99.90
27797;DHT22;15177;50.844;4.412;2022-09-09T07:06:41;19.20;99.90
27797;DHT22;15177;50.844;4.412;2022-09-09T07:09:10;19.20;99.90
27797;DHT22;15177;50.844;4.412;2022-09-09T07:11:41;19.30;99.90
27797;DHT22;15177;50.844;4.412;2022-09-09T07:14:08;19.30;99.90
27797;DHT22;15177;50.844;4.412;2022-09-09T07:16:34;19.40;99.90
27797;DHT22;15177;50.844;4.412;2022-09-09T07:19:03;19.40;99.90
27797;DHT22;15177;50.844;4.412;2022-09-09T07:21:30;19.30;99.90
27797;DHT22;15177;50.844;4.412;2022-09-09T07:23:56;19.40;99.90
27797;DHT22;15177;50.844;4.412;2022-09-09T07:26:24;19.30;99.90
27797;DHT22;15177;50.844;4.412;2022-09-09T07:28:51;19.20;99.90
27797;DHT22;15177;50.844;4.412;2022-09-09T07:31:22;19.20;99.90
27797;DHT22;15177;50.844;4.412;2022-09-09T07:33:49;19.20;99.90
27797;DHT22;15177;50.844;4.412;2022-09-09T07:36:20;19.40;99.90
27797;DHT22;15177;50.844;4.412;2022-09-09T07:38:58;19.30;99.90
27797;DHT22;15177;50.844;4.412;2022-09-09T07:41:33;19.10;99.90
27797;DHT22;15177;50.844;4.412;2022-09-09T07:44:13;19.00;99.90
27797;DHT22;15177;50.844;4.412;2022-09-09T07:46:44;19.00;99.90
27797;DHT22;15177;50.844;4.412;2022-09-09T07:49:11;19.10;99.90
27797;DHT22;15177;50.844;4.412;2022-09-09T07:51:40;18.90;99.90
27797;DHT22;15177;50.844;4.412;2022-09-09T07:54:09;18.80;99.90
27797;DHT22;15177;50.844;4.412;2022-09-09T07:56:35;18.70;99.90
27797;DHT22;15177;50.844;4.412;2022-09-09T07:59:02;18.60;99.90
27797;DHT22;15177;50.844;4.412;2022-09-09T08:01:37;18.70;99.90
27797;DHT22;15177;50.844;4.412;2022-09-09T08:04:09;18.50;99.90
27797;DHT22;15177;50.844;4.412;2022-09-09T08:06:38;18.70;99.90
27797;DHT22;15177;50.844;4.412;2022-09-09T08:09:06;18.60;99.90
27797;DHT22;15177;50.844;4.412;2022-09-09T08:11:33;18.50;99.90
27797;DHT22;15177;50.844;4.412;2022-09-09T08:13:59;18.70;99.90
27797;DHT22;15177;50.844;4.412;2022-09-09T08:16:27;19.10;99.90
27797;DHT22;15177;50.844;4.412;2022-09-09T08:18:54;19.70;99.90
27797;DHT22;15177;50.844;4.412;2022-09-09T08:21:26;20.00;99.90
27797;DHT22;15177;50.844;4.412;2022-09-09T08:23:56;19.90;99.90
27797;DHT22;15177;50.844;4.412;2022-09-09T08:26:36;19.70;99.90
27797;DHT22;15177;50.844;4.412;2022-09-09T08:29:05;19.40;99.90
27797;DHT22;15177;50.844;4.412;2022-09-09T08:31:35;19.40;99.90
27797;DHT22;15177;50.844;4.412;2022-09-09T08:34:02;19.40;99.90
27797;DHT22;15177;50.844;4.412;2022-09-09T08:36:30;19.20;99.90
27797;DHT22;15177;50.844;4.412;2022-09-09T08:38:59;19.30;99.90
27797;DHT22;15177;50.844;4.412;2022-09-09T08:52:19;19.00;99.90
27797;DHT22;15177;50.844;4.412;2022-09-09T08:54:50;18.90;99.90
27797;DHT22;15177;50.844;4.412;2022-09-09T08:57:24;18.90;99.90
27797;DHT22;15177;50.844;4.412;2022-09-09T08:59:55;18.90;99.90
27797;DHT22;15177;50.844;4.412;2022-09-09T09:02:31;18.90;99.90
27797;DHT22;15177;50.844;4.412;2022-09-09T09:05:17;18.90;99.90
27797;DHT22;15177;50.844;4.412;2022-09-09T09:13:02;18.80;99.90
27797;DHT22;15177;50.844;4.412;2022-09-09T09:15:36;18.60;99.90
27797;DHT22;15177;50.844;4.412;2022-09-09T09:18:04;18.60;99.90
27797;DHT22;15177;50.844;4.412;2022-09-09T09:23:19;18.60;99.90
27797;DHT22;15177;50.844;4.412;2022-09-09T09:25:47;18.70;99.90
27797;DHT22;15177;50.844;4.412;2022-09-09T09:28:30;18.60;99.90
27797;DHT22;15177;50.844;4.412;2022-09-09T09:31:00;18.60;99.90
27797;DHT22;15177;50.844;4.412;2022-09-09T09:36:11;18.40;99.90
27797;DHT22;15177;50.844;4.412;2022-09-09T09:38:57;18.50;99.90
27797;DHT22;15177;50.844;4.412;2022-09-09T09:41:39;18.40;99.90
27797;DHT22;15177;50.844;4.412;2022-09-09T09:44:23;18.20;99.90
27797;DHT22;15177;50.844;4.412;2022-09-09T09:46:49;18.20;99.90
27797;DHT22;15177;50.844;4.412;2022-09-09T09:49:15;18.30;99.90
27797;DHT22;15177;50.844;4.412;2022-09-09T09:51:41;18.30;99.90
27797;DHT22;15177;50.844;4.412;2022-09-09T09:54:22;18.40;99.90
27797;DHT22;15177;50.844;4.412;2022-09-09T09:56:53;18.40;99.90
27797;DHT22;15177;50.844;4.412;2022-09-09T09:59:34;18.40;99.90
27797;DHT22;15177;50.844;4.412;2022-09-09T10:02:19;18.30;99.90
27797;DHT22;15177;50.844;4.412;2022-09-09T10:04:45;18.40;99.90
27797;DHT22;15177;50.844;4.412;2022-09-09T10:07:20;18.50;99.90
27797;DHT22;15177;50.844;4.412;2022-09-09T10:09:53;18.70;99.90
27797;DHT22;15177;50.844;4.412;2022-09-09T10:36:23;18.60;99.90
27797;DHT22;15177;50.844;4.412;2022-09-09T10:38:58;19.00;99.90
27797;DHT22;15177;50.844;4.412;2022-09-09T10:41:40;19.40;99.90
27797;DHT22;15177;50.844;4.412;2022-09-09T10:44:28;19.90;99.90
27797;DHT22;15177;50.844;4.412;2022-09-09T10:52:58;20.10;99.90
27797;DHT22;15177;50.844;4.412;2022-09-09T10:55:35;20.30;99.90
27797;DHT22;15177;50.844;4.412;2022-09-09T10:58:05;20.30;99.90
27797;DHT22;15177;50.844;4.412;2022-09-09T11:00:42;20.40;99.90
27797;DHT22;15177;50.844;4.412;2022-09-09T11:03:21;20.40;99.90
27797;DHT22;15177;50.844;4.412;2022-09-09T11:06:00;20.60;99.90
27797;DHT22;15177;50.844;4.412;2022-09-09T11:08:32;20.80;99.90
27797;DHT22;15177;50.844;4.412;2022-09-09T11:11:15;20.90;99.90
27797;DHT22;15177;50.844;4.412;2022-09-09T11:18:41;20.70;99.90
27797;DHT22;15177;50.844;4.412;2022-09-09T11:21:19;20.50;99.90
27797;DHT22;15177;50.844;4.412;2022-09-09T11:23:56;20.50;99.90
27797;DHT22;15177;50.844;4.412;2022-09-09T11:26:36;20.40;99.90
27797;DHT22;15177;50.844;4.412;2022-09-09T11:31:44;20.60;99.90
27797;DHT22;15177;50.844;4.412;2022-09-09T11:34:19;20.60;99.90
27797;DHT22;15177;50.844;4.412;2022-09-09T11:42:15;20.40;99.90
27797;DHT22;15177;50.844;4.412;2022-09-09T11:44:42;20.50;99.90
27797;DHT22;15177;50.844;4.412;2022-09-09T11:47:23;20.30;99.90
27797;DHT22;15177;50.844;4.412;2022-09-09T11:49:52;20.20;99.90
27797;DHT22;15177;50.844;4.412;2022-09-09T11:52:25;20.30;99.90
27797;DHT22;15177;50.844;4.412;2022-09-09T11:54:55;20.30;99.90
27797;DHT22;15177;50.844;4.412;2022-09-09T11:57:32;20.40;99.90
27797;DHT22;15177;50.844;4.412;2022-09-09T11:59:59;20.40;99.90
27797;DHT22;15177;50.844;4.412;2022-09-09T12:02:27;20.30;99.90
27797;DHT22;15177;50.844;4.412;2022-09-09T12:05:06;20.20;99.90
27797;DHT22;15177;50.844;4.412;2022-09-09T12:07:50;20.20;99.90
27797;DHT22;15177;50.844;4.412;2022-09-09T12:12:52;20.40;99.90
27797;DHT22;15177;50.844;4.412;2022-09-09T12:15:27;20.40;99.90
27797;DHT22;15177;50.844;4.412;2022-09-09T12:17:57;20.30;99.90
27797;DHT22;15177;50.844;4.412;2022-09-09T12:20:36;20.40;99.90
27797;DHT22;15177;50.844;4.412;2022-09-09T12:28:16;20.20;99.90
27797;DHT22;15177;50.844;4.412;2022-09-09T12:33:19;20.20;99.90
27797;DHT22;15177;50.844;4.412;2022-09-09T12:35:53;20.20;99.90
27797;DHT22;15177;50.844;4.412;2022-09-09T12:38:32;20.30;99.90
27797;DHT22;15177;50.844;4.412;2022-09-09T12:40:59;20.40;99.90
27797;DHT22;15177;50.844;4.412;2022-09-09T12:43:26;20.50;99.90
27797;DHT22;15177;50.844;4.412;2022-09-09T12:45:56;20.50;99.90
27797;DHT22;15177;50.844;4.412;2022-09-09T12:48:31;20.40;99.90
27797;DHT22;15177;50.844;4.412;2022-09-09T12:50:57;20.50;99.90
27797;DHT22;15177;50.844;4.412;2022-09-09T12:53:28;20.60;99.90
27797;DHT22;15177;50.844;4.412;2022-09-09T12:56:06;20.90;99.90
27797;DHT22;15177;50.844;4.412;2022-09-09T12:58:37;21.10;99.90
27797;DHT22;15177;50.844;4.412;2022-09-09T13:01:06;21.10;99.90
27797;DHT22;15177;50.844;4.412;2022-09-09T13:03:33;21.10;99.90
27797;DHT22;15177;50.844;4.412;2022-09-09T13:06:13;21.10;99.90
27797;DHT22;15177;50.844;4.412;2022-09-09T13:08:39;21.10;99.90
27797;DHT22;15177;50.844;4.412;2022-09-09T13:11:13;21.10;99.90
27797;DHT22;15177;50.844;4.412;2022-09-09T13:13:41;21.00;99.90
27797;DHT22;15177;50.844;4.412;2022-09-09T13:16:25;20.80;99.90
27797;DHT22;15177;50.844;4.412;2022-09-09T13:18:52;20.90;99.90
27797;DHT22;15177;50.844;4.412;2022-09-09T13:21:19;21.00;99.90
27797;DHT22;15177;50.844;4.412;2022-09-09T13:23:49;21.10;99.90
27797;DHT22;15177;50.844;4.412;2022-09-09T13:26:26;21.20;99.90
27797;DHT22;15177;50.844;4.412;2022-09-09T13:28:54;21.30;99.90
27797;DHT22;15177;50.844;4.412;2022-09-09T13:31:32;21.40;99.90
27797;DHT22;15177;50.844;4.412;2022-09-09T13:33:58;21.40;99.90
27797;DHT22;15177;50.844;4.412;2022-09-09T13:36:29;21.50;99.90
27797;DHT22;15177;50.844;4.412;2022-09-09T13:38:58;21.60;99.90
27797;DHT22;15177;50.844;4.412;2022-09-09T13:41:35;21.80;99.90
27797;DHT22;15177;50.844;4.412;2022-09-09T13:44:02;21.90;99.90
27797;DHT22;15177;50.844;4.412;2022-09-09T13:46:37;21.80;99.90
27797;DHT22;15177;50.844;4.412;2022-09-09T13:51:36;22.00;99.90
27797;DHT22;15177;50.844;4.412;2022-09-09T13:54:06;22.00;99.90
27797;DHT22;15177;50.844;4.412;2022-09-09T13:56:35;21.90;99.90
27797;DHT22;15177;50.844;4.412;2022-09-09T13:59:02;21.90;99.90
27797;DHT22;15177;50.844;4.412;2022-09-09T14:01:30;22.00;99.90
27797;DHT22;15177;50.844;4.412;2022-09-09T14:03:56;22.00;99.90
27797;DHT22;15177;50.844;4.412;2022-09-09T14:06:22;22.00;99.90
27797;DHT22;15177;50.844;4.412;2022-09-09T14:08:51;21.90;99.90
27797;DHT22;15177;50.844;4.412;2022-09-09T14:11:18;21.90;99.90
27797;DHT22;15177;50.844;4.412;2022-09-09T14:13:44;21.80;99.90
27797;DHT22;15177;50.844;4.412;2022-09-09T14:16:10;21.70;99.90
27797;DHT22;15177;50.844;4.412;2022-09-09T14:18:36;21.70;99.90
27797;DHT22;15177;50.844;4.412;2022-09-09T14:21:03;21.60;99.90
27797;DHT22;15177;50.844;4.412;2022-09-09T14:23:29;21.50;99.90
27797;DHT22;15177;50.844;4.412;2022-09-09T14:25:55;21.30;99.90
27797;DHT22;15177;50.844;4.412;2022-09-09T14:28:21;21.30;99.90
27797;DHT22;15177;50.844;4.412;2022-09-09T14:30:47;21.20;99.90
27797;DHT22;15177;50.844;4.412;2022-09-09T14:33:15;21.30;99.90
27797;DHT22;15177;50.844;4.412;2022-09-09T14:35:41;21.40;99.90
27797;DHT22;15177;50.844;4.412;2022-09-09T14:38:08;21.50;99.90
27797;DHT22;15177;50.844;4.412;2022-09-09T14:40:37;21.50;99.90
27797;DHT22;15177;50.844;4.412;2022-09-09T14:43:04;21.60;99.90
27797;DHT22;15177;50.844;4.412;2022-09-09T14:45:31;21.60;99.90
27797;DHT22;15177;50.844;4.412;2022-09-09T14:47:56;21.70;99.90
27797;DHT22;15177;50.844;4.412;2022-09-09T14:50:23;21.60;99.90
27797;DHT22;15177;50.844;4.412;2022-09-09T14:52:49;21.60;99.90
27797;DHT22;15177;50.844;4.412;2022-09-09T14:55:15;21.50;99.90
27797;DHT22;15177;50.844;4.412;2022-09-09T14:57:41;21.50;99.90
27797;DHT22;15177;50.844;4.412;2022-09-09T15:00:09;21.50;99.90
27797;DHT22;15177;50.844;4.412;2022-09-09T15:02:37;21.50;99.90
27797;DHT22;15177;50.844;4.412;2022-09-09T15:05:03;21.50;99.90
27797;DHT22;15177;50.844;4.412;2022-09-09T15:07:29;21.60;99.90
27797;DHT22;15177;50.844;4.412;2022-09-09T15:09:57;21.60;99.90
27797;DHT22;15177;50.844;4.412;2022-09-09T15:12:23;21.60;99.90
27797;DHT22;15177;50.844;4.412;2022-09-09T15:14:49;21.70;99.90
27797;DHT22;15177;50.844;4.412;2022-09-09T15:17:16;21.60;99.90
27797;DHT22;15177;50.844;4.412;2022-09-09T15:19:41;21.60;99.90
27797;DHT22;15177;50.844;4.412;2022-09-09T15:22:08;21.60;99.90
27797;DHT22;15177;50.844;4.412;2022-09-09T15:24:34;21.60;99.90
27797;DHT22;15177;50.844;4.412;2022-09-09T15:27:01;21.60;99.90
27797;DHT22;15177;50.844;4.412;2022-09-09T15:29:26;21.50;99.90
27797;DHT22;15177;50.844;4.412;2022-09-09T15:31:54;21.60;99.90
27797;DHT22;15177;50.844;4.412;2022-09-09T15:34:20;21.70;99.90
27797;DHT22;15177;50.844;4.412;2022-09-09T15:36:47;21.70;99.90
27797;DHT22;15177;50.844;4.412;2022-09-09T15:39:15;21.60;99.90
27797;DHT22;15177;50.844;4.412;2022-09-09T15:41:42;21.50;99.90
27797;DHT22;15177;50.844;4.412;2022-09-09T15:44:09;21.40;99.90
27797;DHT22;15177;50.844;4.412;2022-09-09T15:46:44;21.40;99.90
27797;DHT22;15177;50.844;4.412;2022-09-09T15:49:14;21.10;99.90
27797;DHT22;15177;50.844;4.412;2022-09-09T15:51:43;21.10;99.90
27797;DHT22;15177;50.844;4.412;2022-09-09T15:54:14;21.20;99.90
27797;DHT22;15177;50.844;4.412;2022-09-09T15:56:41;21.30;99.90
27797;DHT22;15177;50.844;4.412;2022-09-09T15:59:07;21.30;99.90
27797;DHT22;15177;50.844;4.412;2022-09-09T16:01:33;21.30;99.90
27797;DHT22;15177;50.844;4.412;2022-09-09T16:03:59;21.30;99.90
27797;DHT22;15177;50.844;4.412;2022-09-09T16:06:26;21.40;99.90
27797;DHT22;15177;50.844;4.412;2022-09-09T16:08:54;21.40;99.90
27797;DHT22;15177;50.844;4.412;2022-09-09T16:11:23;21.40;99.90
27797;DHT22;15177;50.844;4.412;2022-09-09T16:13:51;21.30;99.90
27797;DHT22;15177;50.844;4.412;2022-09-09T16:16:19;21.20;99.90
27797;DHT22;15177;50.844;4.412;2022-09-09T16:18:49;21.10;99.90
27797;DHT22;15177;50.844;4.412;2022-09-09T16:21:22;21.00;99.90
27797;DHT22;15177;50.844;4.412;2022-09-09T16:23:50;20.90;99.90
27797;DHT22;15177;50.844;4.412;2022-09-09T16:26:17;20.90;99.90
27797;DHT22;15177;50.844;4.412;2022-09-09T16:28:43;20.90;99.90
27797;DHT22;15177;50.844;4.412;2022-09-09T16:31:12;21.00;99.90
27797;DHT22;15177;50.844;4.412;2022-09-09T16:33:39;20.90;99.90
27797;DHT22;15177;50.844;4.412;2022-09-09T16:36:10;20.80;99.90
27797;DHT22;15177;50.844;4.412;2022-09-09T16:38:36;20.70;99.90
27797;DHT22;15177;50.844;4.412;2022-09-09T16:41:04;20.50;99.90
27797;DHT22;15177;50.844;4.412;2022-09-09T16:43:31;20.40;99.90
27797;DHT22;15177;50.844;4.412;2022-09-09T16:45:57;20.30;99.90
27797;DHT22;15177;50.844;4.412;2022-09-09T16:48:26;20.30;99.90
27797;DHT22;15177;50.844;4.412;2022-09-09T16:50:52;20.30;99.90
27797;DHT22;15177;50.844;4.412;2022-09-09T16:53:18;20.40;99.90
27797;DHT22;15177;50.844;4.412;2022-09-09T16:55:44;20.40;99.90
27797;DHT22;15177;50.844;4.412;2022-09-09T16:58:12;20.60;99.90
27797;DHT22;15177;50.844;4.412;2022-09-09T17:00:38;20.70;99.90
27797;DHT22;15177;50.844;4.412;2022-09-09T17:03:04;20.80;99.90
27797;DHT22;15177;50.844;4.412;2022-09-09T17:05:30;20.80;99.90
27797;DHT22;15177;50.844;4.412;2022-09-09T17:07:58;20.80;99.90
27797;DHT22;15177;50.844;4.412;2022-09-09T17:10:24;20.70;99.90
27797;DHT22;15177;50.844;4.412;2022-09-09T17:12:50;20.60;99.90
27797;DHT22;15177;50.844;4.412;2022-09-09T17:15:16;20.70;99.90
27797;DHT22;15177;50.844;4.412;2022-09-09T17:17:43;20.60;99.90
27797;DHT22;15177;50.844;4.412;2022-09-09T17:20:10;20.50;99.90
27797;DHT22;15177;50.844;4.412;2022-09-09T17:22:37;20.50;99.90
27797;DHT22;15177;50.844;4.412;2022-09-09T17:25:03;20.50;99.90
27797;DHT22;15177;50.844;4.412;2022-09-09T17:27:29;20.50;99.90
27797;DHT22;15177;50.844;4.412;2022-09-09T17:29:57;20.30;99.90
27797;DHT22;15177;50.844;4.412;2022-09-09T17:32:23;20.30;99.90
27797;DHT22;15177;50.844;4.412;2022-09-09T17:34:49;20.10;99.90
27797;DHT22;15177;50.844;4.412;2022-09-09T17:37:15;19.90;99.90
27797;DHT22;15177;50.844;4.412;2022-09-09T17:39:40;19.90;99.90
27797;DHT22;15177;50.844;4.412;2022-09-09T17:42:06;19.80;99.90
27797;DHT22;15177;50.844;4.412;2022-09-09T17:44:33;19.70;99.90
27797;DHT22;15177;50.844;4.412;2022-09-09T17:46:58;19.50;99.90
27797;DHT22;15177;50.844;4.412;2022-09-09T17:49:24;19.50;99.90
27797;DHT22;15177;50.844;4.412;2022-09-09T17:51:50;19.50;99.90
27797;DHT22;15177;50.844;4.412;2022-09-09T17:54:19;19.50;99.90
27797;DHT22;15177;50.844;4.412;2022-09-09T17:56:46;19.40;99.90
27797;DHT22;15177;50.844;4.412;2022-09-09T17:59:13;19.30;99.90
27797;DHT22;15177;50.844;4.412;2022-09-09T18:01:42;19.30;99.90